Time;durP1;ratioP1;P1;durP2;ratioP2;P2;SDS_P1;SDS_P2;PMS_P1;PMS_P2;Temp;Humidity;BMP_temperature;BMP_pressure;BME280_temperature;BME280_humidity;BME280_pressure;Samples;Min_cycle;Max_cycle;Signal;HPM_P1;HPM_P2
2023/03/12 00:01:17;;;;;;;14.40;4.50;;;0.90;76.90;;;;;;5016101;28;20440;-59
2023/03/12 00:03:43;;;;;;;13.73;5.40;;;0.90;76.90;;;;;;5018610;28;20442;-59
2023/03/12 00:06:09;;;;;;;11.23;5.77;;;0.90;78.50;;;;;;5016808;28;20433;-59
2023/03/12 00:08:35;;;;;;;9.53;5.87;;;0.90;79.60;;;;;;5028832;28;20441;-58
2023/03/12 00:11:16;;;;;;;10.13;5.23;;;0.90;79.80;;;;;;5023426;28;20421;-57
2023/03/12 00:13:42;;;;;;;7.80;4.50;;;1.00;81.10;;;;;;5024441;28;20179;-58
2023/03/12 00:16:13;;;;;;;7.57;4.50;;;1.00;81.10;;;;;;5027323;28;20431;-61
2023/03/12 00:18:40;;;;;;;10.00;4.27;;;1.00;81.50;;;;;;5029357;28;20774;-58
2023/03/12 00:21:06;;;;;;;9.80;4.40;;;1.00;82.00;;;;;;5027104;28;20444;-60
2023/03/12 00:23:33;;;;;;;10.00;4.30;;;1.00;82.10;;;;;;5023273;28;20423;-59
2023/03/12 00:26:01;;;;;;;8.30;4.57;;;1.00;81.20;;;;;;5021219;28;20434;-57
2023/03/12 00:28:27;;;;;;;11.70;5.03;;;1.00;81.40;;;;;;5018514;28;20548;-58
2023/03/12 00:30:53;;;;;;;7.63;5.00;;;1.00;81.70;;;;;;5017782;28;20543;-58
2023/03/12 00:33:18;;;;;;;7.13;4.30;;;1.00;83.00;;;;;;5029319;28;20178;-59
2023/03/12 00:35:45;;;;;;;8.77;5.27;;;1.00;85.80;;;;;;5030789;28;20182;-56
2023/03/12 00:38:10;;;;;;;7.70;5.10;;;1.00;87.50;;;;;;5017178;28;20203;-57
2023/03/12 00:40:38;;;;;;;12.60;4.50;;;1.00;89.90;;;;;;5028466;28;20503;-57
2023/03/12 00:43:03;;;;;;;6.73;4.27;;;1.00;90.00;;;;;;5028116;28;20263;-56
2023/03/12 00:45:29;;;;;;;10.07;4.47;;;1.00;87.70;;;;;;5026959;28;20552;-57
2023/03/12 00:47:54;;;;;;;15.63;4.30;;;1.00;87.90;;;;;;5028605;28;20283;-58
2023/03/12 00:50:20;;;;;;;5.50;4.10;;;0.90;88.00;;;;;;5017614;28;20182;-57
2023/03/12 00:52:46;;;;;;;8.50;4.23;;;0.90;90.50;;;;;;5027852;28;20218;-56
2023/03/12 00:55:12;;;;;;;8.00;4.60;;;0.90;90.40;;;;;;5026114;28;20184;-58
2023/03/12 00:57:37;;;;;;;9.30;4.20;;;0.90;89.60;;;;;;5027507;28;20185;-58
2023/03/12 01:00:08;;;;;;;9.40;3.90;;;0.90;89.00;;;;;;5022784;28;20176;-56
2023/03/12 01:02:34;;;;;;;7.20;4.30;;;0.90;87.70;;;;;;5030670;28;20176;-57
2023/03/12 01:05:00;;;;;;;7.90;4.10;;;1.00;86.50;;;;;;5028943;28;20466;-57
2023/03/12 01:07:26;;;;;;;6.00;4.00;;;1.00;86.30;;;;;;5026940;28;20437;-57
2023/03/12 01:09:51;;;;;;;5.37;3.97;;;1.00;85.20;;;;;;5022932;28;20307;-57
2023/03/12 01:12:17;;;;;;;13.33;5.43;;;1.00;83.60;;;;;;5027682;28;20775;-57
2023/03/12 01:14:43;;;;;;;9.50;4.30;;;1.00;82.80;;;;;;5025024;28;20178;-56
2023/03/12 01:17:09;;;;;;;7.07;4.20;;;0.90;81.70;;;;;;5031343;28;20259;-56
2023/03/12 01:19:34;;;;;;;9.73;4.17;;;1.00;83.40;;;;;;5040811;28;20194;-57
2023/03/12 01:22:00;;;;;;;7.77;4.00;;;1.00;84.40;;;;;;5020380;28;20434;-58
2023/03/12 01:24:26;;;;;;;8.30;4.50;;;1.00;85.80;;;;;;5029354;28;20217;-57
2023/03/12 01:26:51;;;;;;;8.50;4.30;;;1.00;85.20;;;;;;5028290;28;20773;-58
2023/03/12 01:29:17;;;;;;;8.30;4.03;;;1.00;84.30;;;;;;5025332;28;20200;-57
2023/03/12 01:31:42;;;;;;;11.03;4.93;;;1.00;86.30;;;;;;5027135;28;20268;-59
2023/03/12 01:34:10;;;;;;;8.07;4.77;;;1.00;85.40;;;;;;5022523;28;20175;-57
2023/03/12 01:36:36;;;;;;;11.83;4.53;;;0.90;82.90;;;;;;5020687;28;20661;-58
2023/03/12 01:39:02;;;;;;;12.40;4.57;;;0.90;83.40;;;;;;5026843;28;20448;-57
2023/03/12 01:41:31;;;;;;;10.73;4.70;;;0.90;82.60;;;;;;5023634;28;20206;-58
2023/03/12 01:43:58;;;;;;;8.63;4.03;;;1.00;81.40;;;;;;5026438;28;20249;-57
2023/03/12 01:46:35;;;;;;;8.57;4.57;;;1.00;81.70;;;;;;5020342;28;20842;-58
2023/03/12 01:49:10;;;;;;;6.57;5.70;;;1.00;81.60;;;;;;5017936;28;21031;-56
2023/03/12 01:51:45;;;;;;;8.70;5.20;;;1.00;84.90;;;;;;5022878;28;20417;-56
2023/03/12 01:54:21;;;;;;;9.60;4.37;;;1.00;87.50;;;;;;5028718;28;20496;-57
2023/03/12 01:56:48;;;;;;;6.37;4.40;;;1.00;88.50;;;;;;5021772;28;20442;-58
2023/03/12 01:59:19;;;;;;;7.03;4.00;;;1.00;88.50;;;;;;5022549;28;20883;-57
2023/03/12 02:01:45;;;;;;;11.93;4.67;;;1.10;88.60;;;;;;5024300;28;20523;-57
2023/03/12 02:04:12;;;;;;;7.37;4.57;;;1.10;88.50;;;;;;5021760;28;20463;-56
2023/03/12 02:06:45;;;;;;;8.13;4.47;;;1.10;87.60;;;;;;5012771;28;20513;-57
2023/03/12 02:09:12;;;;;;;6.23;4.20;;;1.10;87.50;;;;;;5023499;28;20456;-57
2023/03/12 02:11:37;;;;;;;8.13;5.03;;;1.10;88.20;;;;;;5024612;28;20422;-57
2023/03/12 02:14:03;;;;;;;13.03;5.33;;;1.10;88.50;;;;;;5020952;28;20437;-57
2023/03/12 02:16:29;;;;;;;13.00;5.03;;;1.10;87.40;;;;;;5022052;28;20181;-58
2023/03/12 02:18:58;;;;;;;7.37;5.20;;;1.10;88.50;;;;;;5023412;28;20200;-57
2023/03/12 02:21:28;;;;;;;23.07;5.10;;;1.10;89.40;;;;;;5022895;28;20525;-57
2023/03/12 02:24:21;;;;;;;9.10;5.00;;;1.20;89.00;;;;;;5022903;28;20456;-58
2023/03/12 02:26:48;;;;;;;6.53;4.47;;;1.20;88.90;;;;;;5024303;28;20468;-56
2023/03/12 02:29:14;;;;;;;7.50;4.90;;;1.20;89.50;;;;;;5023193;28;20475;-57
2023/03/12 02:31:46;;;;;;;9.27;4.93;;;1.20;87.60;;;;;;5022290;28;20429;-58
2023/03/12 02:34:12;;;;;;;6.03;3.93;;;1.20;84.20;;;;;;5029668;28;20418;-58
2023/03/12 02:36:37;;;;;;;9.87;5.10;;;1.20;81.90;;;;;;5027333;28;20814;-58
2023/03/12 02:39:04;;;;;;;9.13;4.70;;;1.20;82.80;;;;;;5027312;28;20196;-56
2023/03/12 02:41:38;;;;;;;8.97;5.17;;;1.20;85.10;;;;;;5029544;28;20178;-57
2023/03/12 02:44:06;;;;;;;8.40;5.03;;;1.20;86.30;;;;;;5025402;28;20463;-57
2023/03/12 02:46:36;;;;;;;7.40;5.13;;;1.20;86.70;;;;;;5027849;28;20433;-58
2023/03/12 02:49:02;;;;;;;7.73;5.10;;;1.20;86.20;;;;;;5028562;28;20481;-57
2023/03/12 02:51:28;;;;;;;6.97;4.77;;;1.20;87.00;;;;;;5022923;28;20883;-58
2023/03/12 02:53:53;;;;;;;10.33;5.27;;;1.20;88.90;;;;;;5026099;28;20178;-56
2023/03/12 02:56:27;;;;;;;11.73;4.57;;;1.20;88.30;;;;;;5018090;28;20341;-57
2023/03/12 02:58:53;;;;;;;17.53;5.80;;;1.20;85.60;;;;;;5023293;28;20213;-57
2023/03/12 03:01:19;;;;;;;9.20;5.30;;;1.20;84.50;;;;;;5025341;28;20422;-57
2023/03/12 03:03:46;;;;;;;9.93;5.10;;;1.20;85.40;;;;;;5027912;28;20486;-58
2023/03/12 03:06:12;;;;;;;10.57;5.10;;;1.10;87.90;;;;;;5030026;28;20572;-56
2023/03/12 03:08:38;;;;;;;12.80;5.90;;;1.10;90.40;;;;;;5027831;28;20450;-57
2023/03/12 03:11:05;;;;;;;8.70;4.90;;;1.10;90.50;;;;;;5027032;28;20427;-57
2023/03/12 03:13:31;;;;;;;7.70;5.07;;;1.10;90.10;;;;;;5027732;28;20440;-59
2023/03/12 03:15:58;;;;;;;8.87;5.20;;;1.10;90.90;;;;;;5024765;28;20524;-57
2023/03/12 03:18:24;;;;;;;11.10;5.50;;;1.10;91.30;;;;;;5027105;28;20449;-56
2023/03/12 03:21:01;;;;;;;9.90;5.80;;;1.10;92.00;;;;;;5029545;28;20412;-57
2023/03/12 03:23:28;;;;;;;11.47;5.40;;;1.10;92.30;;;;;;5029549;28;20948;-57
2023/03/12 03:25:53;;;;;;;12.70;5.90;;;1.10;91.90;;;;;;5027618;28;21128;-58
2023/03/12 03:28:22;;;;;;;7.83;5.10;;;1.10;91.60;;;;;;5029179;28;20457;-58
2023/03/12 03:30:48;;;;;;;12.13;5.03;;;1.10;91.50;;;;;;5024136;28;20692;-56
2023/03/12 03:33:14;;;;;;;17.13;6.10;;;1.10;91.30;;;;;;5029318;28;20421;-57
2023/03/12 03:35:39;;;;;;;10.23;5.57;;;1.10;91.30;;;;;;5026503;28;20463;-57
2023/03/12 03:38:06;;;;;;;10.33;5.33;;;1.10;91.40;;;;;;5024755;28;20202;-56
2023/03/12 03:40:32;;;;;;;10.80;5.70;;;1.10;92.20;;;;;;5028732;28;20186;-58
2023/03/12 03:42:57;;;;;;;12.03;5.63;;;1.10;92.50;;;;;;5021127;28;20456;-56
2023/03/12 03:45:23;;;;;;;8.90;5.90;;;1.10;92.60;;;;;;5021140;28;20763;-58
2023/03/12 03:47:49;;;;;;;9.53;6.00;;;1.10;91.70;;;;;;5023067;28;20286;-58
2023/03/12 03:50:15;;;;;;;9.90;6.40;;;1.10;91.40;;;;;;5027664;28;20236;-60
2023/03/12 03:52:40;;;;;;;11.60;6.73;;;1.10;91.50;;;;;;5026023;28;20591;-57
2023/03/12 03:55:06;;;;;;;13.23;7.20;;;1.10;91.90;;;;;;5025924;28;20535;-59
2023/03/12 03:57:32;;;;;;;15.27;7.27;;;1.10;92.20;;;;;;5024200;28;20541;-58
2023/03/12 03:59:57;;;;;;;10.27;6.53;;;1.10;92.20;;;;;;5018764;28;20180;-58
2023/03/12 04:02:25;;;;;;;13.30;6.50;;;1.10;92.60;;;;;;5025147;28;20742;-58
2023/03/12 04:04:50;;;;;;;13.40;7.10;;;1.10;91.80;;;;;;5022951;28;20199;-58
2023/03/12 04:07:16;;;;;;;8.67;5.63;;;1.10;92.90;;;;;;5024006;28;20460;-58
2023/03/12 04:09:42;;;;;;;8.43;5.13;;;1.10;94.10;;;;;;5019835;28;20708;-60
2023/03/12 04:12:08;;;;;;;11.33;6.20;;;1.10;93.90;;;;;;5024181;28;20186;-58
2023/03/12 04:14:34;;;;;;;8.87;5.70;;;1.20;93.80;;;;;;5026955;28;20441;-57
2023/03/12 04:16:59;;;;;;;8.83;5.37;;;1.20;94.20;;;;;;5022798;28;20274;-63
2023/03/12 04:19:25;;;;;;;13.17;5.80;;;1.20;95.30;;;;;;5020219;28;20581;-58
2023/03/12 04:21:51;;;;;;;11.30;5.90;;;1.30;95.90;;;;;;5016294;28;20682;-58
2023/03/12 04:24:19;;;;;;;14.03;5.93;;;1.30;95.60;;;;;;5018959;28;20252;-59
2023/03/12 04:26:44;;;;;;;6.90;5.23;;;1.40;95.40;;;;;;5011432;28;20182;-57
2023/03/12 04:29:10;;;;;;;13.33;6.20;;;1.40;95.30;;;;;;5019453;28;20810;-58
2023/03/12 04:31:36;;;;;;;12.73;6.43;;;1.40;96.00;;;;;;5020246;28;20214;-59
2023/03/12 04:34:01;;;;;;;18.70;7.27;;;1.40;96.00;;;;;;5018824;28;20194;-57
2023/03/12 04:36:27;;;;;;;13.13;6.37;;;1.50;95.70;;;;;;5025024;28;20210;-57
2023/03/12 04:38:53;;;;;;;12.30;6.60;;;1.50;96.10;;;;;;5024757;28;20210;-58
2023/03/12 04:41:18;;;;;;;11.00;6.43;;;1.50;96.60;;;;;;5022759;28;20569;-58
2023/03/12 04:43:44;;;;;;;11.00;7.57;;;1.50;96.90;;;;;;5022184;28;20926;-58
2023/03/12 04:46:09;;;;;;;12.80;6.40;;;1.50;96.80;;;;;;5022499;28;20182;-58
2023/03/12 04:48:35;;;;;;;13.87;7.90;;;1.50;96.70;;;;;;5023482;28;20612;-60
2023/03/12 04:51:02;;;;;;;13.17;7.47;;;1.50;96.60;;;;;;5021890;28;20217;-57
2023/03/12 04:53:28;;;;;;;15.40;7.13;;;1.50;96.00;;;;;;5022630;28;20534;-57
2023/03/12 04:55:54;;;;;;;14.57;7.00;;;1.50;96.00;;;;;;5019532;28;20495;-58
2023/03/12 04:58:20;;;;;;;12.40;6.60;;;1.50;96.20;;;;;;5022038;28;20615;-58
2023/03/12 05:00:47;;;;;;;17.77;7.87;;;1.50;95.80;;;;;;5024203;28;20187;-61
2023/03/12 05:03:13;;;;;;;13.50;7.53;;;1.50;95.90;;;;;;5018122;28;20435;-59
2023/03/12 05:05:39;;;;;;;11.63;6.90;;;1.50;95.80;;;;;;5020835;28;20912;-58
2023/03/12 05:08:05;;;;;;;11.40;6.67;;;1.50;95.70;;;;;;5021552;28;20226;-57
2023/03/12 05:10:31;;;;;;;13.20;7.27;;;1.50;94.70;;;;;;5020160;28;20175;-56
2023/03/12 05:12:57;;;;;;;9.67;6.30;;;1.50;94.40;;;;;;5024478;28;20796;-58
2023/03/12 05:15:22;;;;;;;15.83;6.87;;;1.50;94.90;;;;;;5020184;28;20442;-58
2023/03/12 05:17:48;;;;;;;14.50;7.27;;;1.40;94.60;;;;;;5026001;28;20184;-57
2023/03/12 05:20:14;;;;;;;12.90;7.33;;;1.40;94.90;;;;;;5027486;28;20273;-58
2023/03/12 05:22:40;;;;;;;12.67;6.23;;;1.50;95.20;;;;;;5025212;28;20179;-58
2023/03/12 05:25:06;;;;;;;16.27;6.60;;;1.50;95.60;;;;;;5020357;28;20755;-58
2023/03/12 05:27:32;;;;;;;13.37;7.07;;;1.50;95.40;;;;;;5015028;28;20187;-57
2023/03/12 05:29:57;;;;;;;11.70;7.00;;;1.50;95.40;;;;;;5023155;28;20445;-58
2023/03/12 05:32:23;;;;;;;10.23;6.60;;;1.50;96.30;;;;;;5024166;28;20183;-59
2023/03/12 05:34:49;;;;;;;13.10;6.80;;;1.60;97.00;;;;;;5018893;28;20270;-58
2023/03/12 05:37:14;;;;;;;14.57;7.43;;;1.50;96.90;;;;;;5023266;28;20603;-58
2023/03/12 05:39:45;;;;;;;11.83;7.07;;;1.60;97.30;;;;;;5024626;28;20246;-58
2023/03/12 05:42:12;;;;;;;16.93;7.13;;;1.60;96.80;;;;;;5022385;28;20438;-59
2023/03/12 05:44:38;;;;;;;16.73;7.27;;;1.60;97.60;;;;;;5018266;28;20504;-58
2023/03/12 05:47:04;;;;;;;13.93;7.03;;;1.60;97.60;;;;;;5019612;28;20471;-58
2023/03/12 05:49:30;;;;;;;12.87;7.03;;;1.60;97.60;;;;;;5020980;28;20453;-58
2023/03/12 05:51:57;;;;;;;10.83;7.63;;;1.60;98.10;;;;;;5021769;28;20655;-59
2023/03/12 05:54:23;;;;;;;12.20;7.37;;;1.60;98.90;;;;;;5020585;28;20611;-59
2023/03/12 05:56:49;;;;;;;16.00;9.50;;;1.60;99.40;;;;;;5023167;28;20437;-58
2023/03/12 05:59:14;;;;;;;19.43;10.07;;;1.60;99.90;;;;;;5023506;28;20851;-58
2023/03/12 06:01:41;;;;;;;14.03;8.60;;;1.60;99.90;;;;;;5021346;28;20210;-59
2023/03/12 06:04:06;;;;;;;20.63;7.93;;;1.60;99.90;;;;;;5021290;28;20211;-58
2023/03/12 06:06:34;;;;;;;15.43;8.30;;;1.70;99.90;;;;;;5018188;28;20432;-59
2023/03/12 06:09:00;;;;;;;12.63;8.10;;;1.70;99.90;;;;;;5021979;28;20252;-59
2023/03/12 06:11:25;;;;;;;15.67;8.63;;;1.80;99.90;;;;;;5019213;28;20426;-58
2023/03/12 06:13:51;;;;;;;18.97;8.13;;;1.80;99.90;;;;;;5024850;28;20766;-57
2023/03/12 06:16:23;;;;;;;15.40;8.20;;;1.80;99.90;;;;;;5017832;28;20610;-58
2023/03/12 06:18:52;;;;;;;14.83;8.63;;;1.80;99.90;;;;;;5023081;28;20204;-58
2023/03/12 06:21:21;;;;;;;17.37;9.40;;;1.80;99.90;;;;;;5018519;28;20447;-58
2023/03/12 06:23:47;;;;;;;13.63;9.20;;;1.80;99.90;;;;;;5022754;28;20476;-58
2023/03/12 06:26:14;;;;;;;18.90;9.60;;;1.80;99.90;;;;;;5021535;28;21161;-58
2023/03/12 06:28:40;;;;;;;17.80;9.07;;;1.90;99.90;;;;;;5019980;28;20434;-58
2023/03/12 06:31:07;;;;;;;18.60;8.07;;;1.80;99.90;;;;;;5015423;28;20445;-58
2023/03/12 06:33:33;;;;;;;12.53;7.10;;;1.90;99.90;;;;;;5016636;28;20489;-60
2023/03/12 06:36:01;;;;;;;16.70;7.80;;;1.80;99.90;;;;;;5018091;28;20517;-57
2023/03/12 06:38:27;;;;;;;18.23;7.57;;;1.90;99.90;;;;;;5018042;28;20459;-58
2023/03/12 06:40:58;;;;;;;15.53;7.50;;;1.90;99.90;;;;;;5017775;28;20438;-58
2023/03/12 06:43:25;;;;;;;18.47;9.00;;;1.80;99.90;;;;;;5019451;28;20423;-58
2023/03/12 06:45:53;;;;;;;15.60;9.57;;;1.90;99.90;;;;;;5019522;28;20508;-59
2023/03/12 06:48:19;;;;;;;21.70;10.20;;;1.90;99.90;;;;;;5020517;28;20443;-59
2023/03/12 06:50:44;;;;;;;22.57;10.83;;;1.90;99.90;;;;;;5020185;28;20451;-58
2023/03/12 06:53:10;;;;;;;21.93;11.80;;;2.00;99.90;;;;;;5019336;28;20199;-58
2023/03/12 06:55:36;;;;;;;15.73;9.03;;;2.00;99.90;;;;;;5019705;28;20178;-59
2023/03/12 06:58:02;;;;;;;19.27;9.03;;;2.10;99.90;;;;;;5010248;28;20831;-58
2023/03/12 07:00:29;;;;;;;14.20;10.03;;;2.10;99.90;;;;;;5021438;28;20432;-57
2023/03/12 07:02:55;;;;;;;20.50;9.77;;;2.10;99.90;;;;;;5020585;28;20428;-57
2023/03/12 07:05:22;;;;;;;15.57;8.70;;;2.20;99.90;;;;;;5017730;28;20514;-57
2023/03/12 07:07:48;;;;;;;15.93;8.80;;;2.20;99.90;;;;;;5024607;28;20431;-58
2023/03/12 07:10:13;;;;;;;17.43;10.37;;;2.20;99.90;;;;;;5020363;28;20422;-58
2023/03/12 07:12:39;;;;;;;19.13;10.33;;;2.20;99.90;;;;;;5025455;28;20182;-58
2023/03/12 07:15:05;;;;;;;21.80;11.40;;;2.30;99.90;;;;;;5030814;28;20678;-56
2023/03/12 07:17:31;;;;;;;20.00;11.27;;;2.30;99.90;;;;;;5026232;28;20183;-59
2023/03/12 07:19:56;;;;;;;24.23;12.70;;;2.40;99.90;;;;;;5022209;28;20463;-58
2023/03/12 07:22:22;;;;;;;19.93;11.70;;;2.50;99.90;;;;;;5022542;28;20709;-59
2023/03/12 07:24:48;;;;;;;18.60;10.73;;;2.60;99.90;;;;;;5024651;28;20221;-58
2023/03/12 07:27:13;;;;;;;24.53;12.00;;;2.60;99.90;;;;;;5022964;28;20247;-56
2023/03/12 07:29:39;;;;;;;20.90;11.30;;;2.60;99.90;;;;;;5027511;28;20196;-58
2023/03/12 07:32:05;;;;;;;24.10;12.60;;;2.70;99.90;;;;;;5021676;28;20201;-58
2023/03/12 07:34:30;;;;;;;16.30;9.30;;;2.70;99.90;;;;;;5018328;28;20193;-58
2023/03/12 07:36:56;;;;;;;21.20;10.50;;;2.80;99.90;;;;;;5025074;28;20189;-59
2023/03/12 07:39:21;;;;;;;24.60;10.77;;;2.90;99.90;;;;;;5024269;28;20203;-57
2023/03/12 07:41:47;;;;;;;17.80;10.47;;;2.90;99.90;;;;;;5021379;28;20258;-60
2023/03/12 07:44:12;;;;;;;18.30;10.60;;;3.00;99.90;;;;;;5024453;28;20718;-58
2023/03/12 07:46:38;;;;;;;19.90;10.77;;;3.00;99.90;;;;;;5022771;28;20175;-58
2023/03/12 07:49:04;;;;;;;18.43;10.83;;;3.10;99.90;;;;;;5022942;28;20299;-57
2023/03/12 07:51:29;;;;;;;19.23;10.10;;;3.30;99.90;;;;;;5023865;28;20211;-57
2023/03/12 07:53:55;;;;;;;20.20;11.07;;;3.40;99.90;;;;;;5024521;28;20172;-58
2023/03/12 07:56:21;;;;;;;17.70;9.17;;;3.40;99.90;;;;;;5020579;28;20430;-57
2023/03/12 07:58:47;;;;;;;18.93;10.17;;;3.50;99.90;;;;;;5019938;28;20283;-58
2023/03/12 08:01:12;;;;;;;17.33;11.17;;;3.50;99.90;;;;;;5017657;28;20191;-59
2023/03/12 08:03:38;;;;;;;21.87;12.40;;;3.50;99.90;;;;;;5015788;28;20219;-57
2023/03/12 08:06:04;;;;;;;37.30;17.97;;;3.50;99.90;;;;;;5021731;28;20242;-61
2023/03/12 08:08:30;;;;;;;42.37;26.53;;;3.50;99.90;;;;;;5025170;28;20192;-57
2023/03/12 08:10:57;;;;;;;55.63;29.77;;;3.60;99.90;;;;;;5022239;28;20510;-58
2023/03/12 08:13:23;;;;;;;49.67;29.20;;;3.60;99.90;;;;;;5012215;28;20449;-59
2023/03/12 08:15:50;;;;;;;28.17;16.50;;;3.70;99.90;;;;;;5012126;28;21179;-58
2023/03/12 08:18:17;;;;;;;22.33;15.20;;;3.80;99.90;;;;;;5021029;28;20482;-58
2023/03/12 08:20:42;;;;;;;19.87;12.00;;;3.80;99.90;;;;;;5022733;28;20431;-58
2023/03/12 08:23:08;;;;;;;23.83;12.27;;;3.90;99.90;;;;;;5010318;28;20517;-58
2023/03/12 08:25:35;;;;;;;19.03;10.73;;;3.90;99.90;;;;;;5020631;28;20199;-57
2023/03/12 08:28:04;;;;;;;21.23;11.00;;;4.00;99.90;;;;;;5018315;28;20191;-60
2023/03/12 08:30:30;;;;;;;14.63;9.10;;;4.00;99.90;;;;;;5023943;28;21127;-58
2023/03/12 08:32:57;;;;;;;20.57;10.10;;;4.10;99.90;;;;;;5019197;28;20417;-59
2023/03/12 08:35:22;;;;;;;21.80;11.40;;;4.10;99.90;;;;;;5004761;28;20508;-61
2023/03/12 08:37:48;;;;;;;18.30;9.80;;;4.10;99.90;;;;;;5009805;28;20435;-60
2023/03/12 08:40:14;;;;;;;21.97;11.60;;;4.10;99.90;;;;;;5017936;28;20233;-60
2023/03/12 08:42:41;;;;;;;18.90;10.93;;;4.20;99.90;;;;;;5012560;28;20578;-60
2023/03/12 08:45:08;;;;;;;20.40;10.80;;;4.30;99.90;;;;;;5012995;28;20496;-60
2023/03/12 08:47:34;;;;;;;15.60;10.27;;;4.30;99.90;;;;;;5019014;28;20431;-60
2023/03/12 08:49:59;;;;;;;21.57;12.90;;;4.30;99.90;;;;;;5016795;28;20915;-55
2023/03/12 08:52:25;;;;;;;19.13;11.73;;;4.40;99.90;;;;;;5012092;28;20435;-58
2023/03/12 08:54:51;;;;;;;31.80;13.30;;;4.40;99.90;;;;;;5013886;28;20695;-58
2023/03/12 08:57:16;;;;;;;17.23;10.53;;;4.50;99.90;;;;;;5013890;28;20841;-58
2023/03/12 08:59:42;;;;;;;25.37;12.07;;;4.50;99.90;;;;;;5016725;28;20195;-59
2023/03/12 09:02:11;;;;;;;19.83;11.37;;;4.60;99.90;;;;;;5009398;28;20271;-59
2023/03/12 09:04:37;;;;;;;20.43;10.40;;;4.70;99.90;;;;;;5015937;28;20739;-59
2023/03/12 09:07:03;;;;;;;20.73;12.30;;;4.80;99.90;;;;;;5019471;28;20418;-58
2023/03/12 09:09:28;;;;;;;18.73;11.60;;;4.90;99.90;;;;;;5013574;28;20199;-57
2023/03/12 09:11:54;;;;;;;21.67;13.07;;;5.00;99.90;;;;;;5010947;28;20430;-59
2023/03/12 09:14:19;;;;;;;21.50;12.57;;;5.20;99.90;;;;;;5017796;28;20186;-58
2023/03/12 09:16:45;;;;;;;22.90;12.57;;;5.30;99.90;;;;;;5019630;28;20176;-58
2023/03/12 09:19:11;;;;;;;22.53;12.63;;;5.40;99.90;;;;;;5010928;28;20204;-60
2023/03/12 09:21:36;;;;;;;17.97;10.97;;;5.60;99.90;;;;;;5017255;28;20188;-58
2023/03/12 09:24:02;;;;;;;15.27;9.57;;;5.70;99.90;;;;;;5019583;28;20559;-58
2023/03/12 09:26:28;;;;;;;16.60;9.97;;;5.90;99.90;;;;;;5014747;28;20667;-59
2023/03/12 09:28:53;;;;;;;13.00;8.77;;;6.00;99.90;;;;;;5014112;28;20461;-59
2023/03/12 09:31:19;;;;;;;12.70;7.40;;;6.20;99.90;;;;;;5008324;28;20238;-59
2023/03/12 09:33:45;;;;;;;10.80;6.50;;;6.30;99.90;;;;;;5007333;28;20183;-59
2023/03/12 09:36:11;;;;;;;11.80;6.87;;;6.50;99.90;;;;;;5017689;28;20183;-59
2023/03/12 09:38:37;;;;;;;11.00;6.83;;;6.70;99.90;;;;;;5014758;28;20207;-58
2023/03/12 09:41:05;;;;;;;15.47;6.87;;;6.90;99.90;;;;;;5023381;28;20221;-60
2023/03/12 09:43:46;;;;;;;11.47;5.70;;;7.10;99.90;;;;;;5020175;28;20659;-59
2023/03/12 09:46:17;;;;;;;8.60;5.77;;;7.20;99.90;;;;;;5023411;28;20497;-60
2023/03/12 09:48:43;;;;;;;7.10;4.37;;;7.40;99.90;;;;;;5021395;28;20442;-59
2023/03/12 09:51:28;;;;;;;11.07;4.90;;;7.60;99.90;;;;;;5011263;28;20422;-58
2023/03/12 09:53:57;;;;;;;8.53;4.67;;;7.70;99.90;;;;;;5014826;28;20430;-59
2023/03/12 09:56:26;;;;;;;7.77;4.80;;;7.80;99.90;;;;;;5016606;28;20434;-59
2023/03/12 09:58:53;;;;;;;6.63;4.53;;;7.80;99.90;;;;;;5011398;28;20834;-59
2023/03/12 10:01:50;;;;;;;5.00;3.77;;;7.80;99.90;;;;;;5013707;28;21013;-58
2023/03/12 10:04:40;;;;;;;6.20;4.30;;;7.80;99.90;;;;;;5014030;28;20418;-59
2023/03/12 10:07:17;;;;;;;9.67;3.60;;;7.90;99.90;;;;;;5012645;28;20431;-59
2023/03/12 10:10:06;;;;;;;6.80;3.80;;;7.90;99.90;;;;;;5011920;28;20442;-60
2023/03/12 10:12:37;;;;;;;7.30;3.37;;;8.00;99.90;;;;;;5010980;28;20426;-58
2023/03/12 10:15:24;;;;;;;6.70;3.20;;;8.00;99.90;;;;;;5012830;28;20516;-59
2023/03/12 10:18:11;;;;;;;4.07;3.20;;;8.00;99.90;;;;;;5018780;28;20426;-59
2023/03/12 10:21:36;;;;;;;5.87;3.67;;;8.00;99.90;;;;;;5013116;28;20442;-62
2023/03/12 10:24:27;;;;;;;4.87;3.20;;;8.00;99.90;;;;;;4975141;28;20446;-59
2023/03/12 10:26:56;;;;;;;6.13;3.27;;;8.10;99.90;;;;;;4984459;28;20455;-58
2023/03/12 10:29:23;;;;;;;7.97;3.10;;;8.10;99.90;;;;;;4999651;28;20478;-58
2023/03/12 10:31:52;;;;;;;3.67;1.93;;;8.10;99.90;;;;;;5008592;28;20482;-59
2023/03/12 10:34:27;;;;;;;5.53;1.60;;;8.10;99.90;;;;;;5013677;28;20445;-59
2023/03/12 10:36:59;;;;;;;2.53;1.47;;;8.10;99.90;;;;;;5017065;28;20634;-59
2023/03/12 10:39:25;;;;;;;8.50;1.73;;;8.10;99.90;;;;;;5016963;28;20458;-59
2023/03/12 10:41:51;;;;;;;2.60;1.80;;;8.10;99.90;;;;;;5012979;28;20438;-59
2023/03/12 10:44:20;;;;;;;3.30;1.60;;;8.20;99.90;;;;;;5008192;28;20187;-60
2023/03/12 10:47:11;;;;;;;8.10;2.00;;;8.20;99.90;;;;;;5011781;28;20500;-59
2023/03/12 10:49:37;;;;;;;4.33;2.60;;;8.20;99.90;;;;;;5019100;28;20460;-58
2023/03/12 10:52:19;;;;;;;5.30;2.70;;;8.20;99.90;;;;;;5018799;28;20426;-58
2023/03/12 10:54:47;;;;;;;4.27;2.73;;;8.20;99.90;;;;;;5018407;28;20191;-58
2023/03/12 10:57:14;;;;;;;5.13;2.50;;;8.10;99.90;;;;;;5012462;28;20815;-58
2023/03/12 10:59:44;;;;;;;2.83;2.00;;;8.10;99.90;;;;;;5020987;28;21390;-58
2023/03/12 11:02:44;;;;;;;2.97;2.30;;;8.10;99.90;;;;;;5015129;28;20483;-58
2023/03/12 11:05:23;;;;;;;4.57;2.73;;;8.10;99.90;;;;;;5020042;28;20466;-59
2023/03/12 11:07:49;;;;;;;6.17;2.40;;;8.00;99.90;;;;;;5012959;28;20430;-57
2023/03/12 11:10:39;;;;;;;7.70;2.43;;;8.00;99.90;;;;;;5018517;28;20430;-58
2023/03/12 11:13:24;;;;;;;3.03;2.30;;;8.00;99.90;;;;;;5018723;28;20478;-55
2023/03/12 11:15:51;;;;;;;2.53;1.90;;;8.10;99.90;;;;;;5013898;28;20517;-58
2023/03/12 11:18:17;;;;;;;4.47;2.47;;;8.10;99.90;;;;;;5014148;28;20465;-58
2023/03/12 11:20:43;;;;;;;6.93;3.37;;;8.20;99.90;;;;;;5004053;28;20444;-60
2023/03/12 11:23:21;;;;;;;5.07;2.03;;;8.20;99.90;;;;;;5017156;28;20262;-58
2023/03/12 11:26:03;;;;;;;1.57;1.47;;;8.20;99.90;;;;;;5029004;28;20241;-58
2023/03/12 11:28:39;;;;;;;3.53;1.60;;;8.30;99.90;;;;;;5008705;28;20451;-59
2023/03/12 11:31:12;;;;;;;3.50;1.73;;;8.40;99.90;;;;;;5013364;28;20533;-59
2023/03/12 11:33:38;;;;;;;2.10;1.90;;;8.50;99.90;;;;;;5016115;28;20457;-60
2023/03/12 11:36:23;;;;;;;2.43;1.50;;;8.70;99.90;;;;;;5014673;28;20948;-60
2023/03/12 11:39:04;;;;;;;4.47;1.50;;;8.80;99.90;;;;;;5018788;28;20196;-63
2023/03/12 11:41:42;;;;;;;3.97;1.53;;;9.00;99.90;;;;;;5015060;28;20434;-60
2023/03/12 11:44:30;;;;;;;1.93;1.53;;;9.10;95.10;;;;;;5019064;28;20950;-60
2023/03/12 11:47:10;;;;;;;2.43;1.40;;;9.10;93.80;;;;;;5017419;28;20438;-60
2023/03/12 11:49:45;;;;;;;2.60;1.70;;;9.20;93.60;;;;;;5017115;28;21071;-59
2023/03/12 11:52:36;;;;;;;4.67;1.60;;;9.20;92.20;;;;;;5026331;28;20431;-59
2023/03/12 11:55:34;;;;;;;4.33;1.30;;;9.40;94.70;;;;;;5017861;28;21350;-60
2023/03/12 11:58:17;;;;;;;3.90;2.10;;;9.80;92.20;;;;;;5020587;28;20462;-60
2023/03/12 12:00:43;;;;;;;2.00;1.57;;;10.20;91.80;;;;;;5020355;28;20430;-59
2023/03/12 12:03:30;;;;;;;5.10;1.90;;;10.30;89.80;;;;;;5020801;28;20446;-55
2023/03/12 12:06:07;;;;;;;2.57;1.40;;;10.30;82.10;;;;;;5022244;28;20294;-57
2023/03/12 12:08:57;;;;;;;3.97;1.23;;;10.20;83.40;;;;;;5024383;28;20445;-59
2023/03/12 12:11:47;;;;;;;3.00;1.17;;;10.00;79.00;;;;;;5019497;28;20434;-59
2023/03/12 12:14:24;;;;;;;1.20;1.10;;;10.10;72.40;;;;;;5023113;28;20957;-59
2023/03/12 12:17:13;;;;;;;5.30;1.23;;;10.20;69.40;;;;;;5022306;28;20457;-60
2023/03/12 12:19:49;;;;;;;2.60;1.40;;;10.10;69.80;;;;;;5026521;28;20474;-59
2023/03/12 12:22:45;;;;;;;1.53;1.00;;;10.10;68.40;;;;;;5023288;28;20458;-60
2023/03/12 12:25:25;;;;;;;2.40;1.20;;;10.00;69.20;;;;;;5017561;28;20634;-59
2023/03/12 12:27:54;;;;;;;1.70;1.30;;;9.90;71.20;;;;;;5023495;28;20437;-59
2023/03/12 12:30:41;;;;;;;3.93;1.40;;;9.80;70.40;;;;;;5020111;28;20546;-59
2023/03/12 12:33:21;;;;;;;2.73;1.20;;;9.80;70.30;;;;;;5014249;28;20674;-60
2023/03/12 12:35:47;;;;;;;3.27;1.40;;;9.70;68.60;;;;;;5022347;28;20442;-60
2023/03/12 12:38:29;;;;;;;2.83;1.20;;;9.70;68.60;;;;;;5015067;28;20618;-59
2023/03/12 12:41:14;;;;;;;4.63;1.20;;;9.80;68.90;;;;;;5024244;28;20567;-58
2023/03/12 12:43:43;;;;;;;2.47;1.50;;;10.10;66.20;;;;;;5012226;28;20484;-59
2023/03/12 12:46:16;;;;;;;1.63;1.23;;;10.10;64.80;;;;;;5021862;28;20475;-59
2023/03/12 12:48:52;;;;;;;1.77;1.10;;;10.00;64.70;;;;;;5011024;28;20819;-59
2023/03/12 12:51:21;;;;;;;8.57;1.40;;;9.90;66.20;;;;;;5018339;28;20521;-59
2023/03/12 12:54:15;;;;;;;2.67;1.37;;;9.90;67.00;;;;;;5016042;28;20612;-61
2023/03/12 12:56:51;;;;;;;7.20;1.50;;;9.90;66.50;;;;;;5012656;28;20505;-60
2023/03/12 12:59:23;;;;;;;1.50;1.40;;;9.90;66.40;;;;;;5012840;28;20811;-59